sensor_id;sensor_type;location;lat;lon;timestamp;temperature;humidity
16814;DHT22;8524;57.650;11.926;2022-11-20T00:00:20;0.90;99.90
16814;DHT22;8524;57.650;11.926;2022-11-20T00:02:46;0.90;99.90
16814;DHT22;8524;57.650;11.926;2022-11-20T00:05:13;1.00;99.90
16814;DHT22;8524;57.650;11.926;2022-11-20T00:07:40;1.00;99.90
16814;DHT22;8524;57.650;11.926;2022-11-20T00:10:08;1.00;99.90
16814;DHT22;8524;57.650;11.926;2022-11-20T00:12:34;0.90;99.90
16814;DHT22;8524;57.650;11.926;2022-11-20T00:15:02;0.90;99.90
16814;DHT22;8524;57.650;11.926;2022-11-20T00:17:30;0.90;99.90
16814;DHT22;8524;57.650;11.926;2022-11-20T00:19:57;0.80;99.90
16814;DHT22;8524;57.650;11.926;2022-11-20T00:22:24;0.80;99.90
16814;DHT22;8524;57.650;11.926;2022-11-20T00:24:50;0.80;99.90
16814;DHT22;8524;57.650;11.926;2022-11-20T00:27:17;0.80;99.90
16814;DHT22;8524;57.650;11.926;2022-11-20T00:29:44;0.90;99.90
16814;DHT22;8524;57.650;11.926;2022-11-20T00:32:12;1.00;99.90
16814;DHT22;8524;57.650;11.926;2022-11-20T00:34:40;1.00;99.90
16814;DHT22;8524;57.650;11.926;2022-11-20T00:37:07;1.00;99.90
16814;DHT22;8524;57.650;11.926;2022-11-20T00:39:33;0.90;99.90
16814;DHT22;8524;57.650;11.926;2022-11-20T00:42:00;1.00;99.90
16814;DHT22;8524;57.650;11.926;2022-11-20T00:44:27;0.90;99.90
16814;DHT22;8524;57.650;11.926;2022-11-20T00:46:54;0.90;99.90
16814;DHT22;8524;57.650;11.926;2022-11-20T00:49:21;0.90;99.90
16814;DHT22;8524;57.650;11.926;2022-11-20T00:51:49;0.90;99.90
16814;DHT22;8524;57.650;11.926;2022-11-20T00:54:16;0.90;99.90
16814;DHT22;8524;57.650;11.926;2022-11-20T00:56:43;0.90;99.90
16814;DHT22;8524;57.650;11.926;2022-11-20T00:59:10;0.90;99.90
16814;DHT22;8524;57.650;11.926;2022-11-20T01:01:37;0.90;99.90
16814;DHT22;8524;57.650;11.926;2022-11-20T01:04:04;0.80;99.90
16814;DHT22;8524;57.650;11.926;2022-11-20T01:06:33;0.90;99.90
16814;DHT22;8524;57.650;11.926;2022-11-20T01:09:04;0.80;99.90
16814;DHT22;8524;57.650;11.926;2022-11-20T01:11:32;0.70;99.90
16814;DHT22;8524;57.650;11.926;2022-11-20T01:14:01;0.80;99.90
16814;DHT22;8524;57.650;11.926;2022-11-20T01:16:30;0.80;99.90
16814;DHT22;8524;57.650;11.926;2022-11-20T01:18:59;0.80;99.90
16814;DHT22;8524;57.650;11.926;2022-11-20T01:21:28;0.70;99.90
16814;DHT22;8524;57.650;11.926;2022-11-20T01:23:56;0.70;99.90
16814;DHT22;8524;57.650;11.926;2022-11-20T01:26:26;0.70;99.90
16814;DHT22;8524;57.650;11.926;2022-11-20T01:28:54;0.70;99.90
16814;DHT22;8524;57.650;11.926;2022-11-20T01:31:22;0.70;99.90
16814;DHT22;8524;57.650;11.926;2022-11-20T01:33:51;0.70;99.90
16814;DHT22;8524;57.650;11.926;2022-11-20T01:36:20;0.60;99.90
16814;DHT22;8524;57.650;11.926;2022-11-20T01:38:50;0.70;99.90
16814;DHT22;8524;57.650;11.926;2022-11-20T01:41:17;0.70;99.90
16814;DHT22;8524;57.650;11.926;2022-11-20T01:43:59;0.60;99.90
16814;DHT22;8524;57.650;11.926;2022-11-20T01:46:27;0.50;99.90
16814;DHT22;8524;57.650;11.926;2022-11-20T01:48:58;0.60;99.90
16814;DHT22;8524;57.650;11.926;2022-11-20T01:51:30;0.50;99.90
16814;DHT22;8524;57.650;11.926;2022-11-20T01:54:01;0.50;99.90
16814;DHT22;8524;57.650;11.926;2022-11-20T01:56:29;0.50;99.90
16814;DHT22;8524;57.650;11.926;2022-11-20T01:59:00;0.50;99.90
16814;DHT22;8524;57.650;11.926;2022-11-20T02:01:28;0.50;99.90
16814;DHT22;8524;57.650;11.926;2022-11-20T02:03:56;0.50;99.90
16814;DHT22;8524;57.650;11.926;2022-11-20T02:06:25;0.50;99.90
16814;DHT22;8524;57.650;11.926;2022-11-20T02:08:52;0.50;99.90
16814;DHT22;8524;57.650;11.926;2022-11-20T02:11:20;0.50;99.90
16814;DHT22;8524;57.650;11.926;2022-11-20T02:13:47;0.60;99.90
16814;DHT22;8524;57.650;11.926;2022-11-20T02:16:19;0.50;99.90
16814;DHT22;8524;57.650;11.926;2022-11-20T02:18:48;0.50;99.90
16814;DHT22;8524;57.650;11.926;2022-11-20T02:21:30;0.60;99.90
16814;DHT22;8524;57.650;11.926;2022-11-20T02:24:09;0.60;99.90
16814;DHT22;8524;57.650;11.926;2022-11-20T02:26:45;0.60;99.90
16814;DHT22;8524;57.650;11.926;2022-11-20T02:29:14;0.60;99.90
16814;DHT22;8524;57.650;11.926;2022-11-20T02:31:43;0.60;99.90
16814;DHT22;8524;57.650;11.926;2022-11-20T02:34:10;0.60;99.90
16814;DHT22;8524;57.650;11.926;2022-11-20T02:36:39;0.60;99.90
16814;DHT22;8524;57.650;11.926;2022-11-20T02:39:10;0.60;99.90
16814;DHT22;8524;57.650;11.926;2022-11-20T02:41:38;0.50;99.90
16814;DHT22;8524;57.650;11.926;2022-11-20T02:44:05;0.50;99.90
16814;DHT22;8524;57.650;11.926;2022-11-20T02:46:33;0.60;99.90
16814;DHT22;8524;57.650;11.926;2022-11-20T02:49:01;0.60;99.90
16814;DHT22;8524;57.650;11.926;2022-11-20T02:51:28;0.60;99.90
16814;DHT22;8524;57.650;11.926;2022-11-20T02:53:55;0.60;99.90
16814;DHT22;8524;57.650;11.926;2022-11-20T02:56:24;0.60;99.90
16814;DHT22;8524;57.650;11.926;2022-11-20T02:58:51;0.70;99.90
16814;DHT22;8524;57.650;11.926;2022-11-20T03:01:18;0.70;99.90
16814;DHT22;8524;57.650;11.926;2022-11-20T03:03:45;0.70;99.90
16814;DHT22;8524;57.650;11.926;2022-11-20T03:06:14;0.90;99.90
16814;DHT22;8524;57.650;11.926;2022-11-20T03:08:41;0.90;99.90
16814;DHT22;8524;57.650;11.926;2022-11-20T03:11:08;0.90;99.90
16814;DHT22;8524;57.650;11.926;2022-11-20T03:13:37;0.80;99.90
16814;DHT22;8524;57.650;11.926;2022-11-20T03:16:12;0.90;99.90
16814;DHT22;8524;57.650;11.926;2022-11-20T03:18:40;0.90;99.90
16814;DHT22;8524;57.650;11.926;2022-11-20T03:21:07;0.70;99.90
16814;DHT22;8524;57.650;11.926;2022-11-20T03:23:34;0.60;99.90
16814;DHT22;8524;57.650;11.926;2022-11-20T03:26:13;0.70;99.90
16814;DHT22;8524;57.650;11.926;2022-11-20T03:28:42;0.70;99.90
16814;DHT22;8524;57.650;11.926;2022-11-20T03:31:10;0.60;99.90
16814;DHT22;8524;57.650;11.926;2022-11-20T03:33:38;0.50;99.90
16814;DHT22;8524;57.650;11.926;2022-11-20T03:36:07;0.50;99.90
16814;DHT22;8524;57.650;11.926;2022-11-20T03:38:35;0.50;99.90
16814;DHT22;8524;57.650;11.926;2022-11-20T03:41:03;0.40;99.90
16814;DHT22;8524;57.650;11.926;2022-11-20T03:43:30;0.50;99.90
16814;DHT22;8524;57.650;11.926;2022-11-20T03:45:59;0.40;99.90
16814;DHT22;8524;57.650;11.926;2022-11-20T03:48:26;0.40;99.90
16814;DHT22;8524;57.650;11.926;2022-11-20T03:51:05;0.40;99.90
16814;DHT22;8524;57.650;11.926;2022-11-20T03:53:32;0.40;99.90
16814;DHT22;8524;57.650;11.926;2022-11-20T03:55:59;0.30;99.90
16814;DHT22;8524;57.650;11.926;2022-11-20T03:58:26;0.30;99.90
16814;DHT22;8524;57.650;11.926;2022-11-20T04:00:53;0.30;99.90
16814;DHT22;8524;57.650;11.926;2022-11-20T04:03:21;0.30;99.90
16814;DHT22;8524;57.650;11.926;2022-11-20T04:05:48;0.30;99.90
16814;DHT22;8524;57.650;11.926;2022-11-20T04:08:15;0.30;99.90
16814;DHT22;8524;57.650;11.926;2022-11-20T04:10:42;0.30;99.90
16814;DHT22;8524;57.650;11.926;2022-11-20T04:13:08;0.20;99.90
16814;DHT22;8524;57.650;11.926;2022-11-20T04:15:35;0.30;99.90
16814;DHT22;8524;57.650;11.926;2022-11-20T04:18:02;0.30;99.90
16814;DHT22;8524;57.650;11.926;2022-11-20T04:20:30;0.30;99.90
16814;DHT22;8524;57.650;11.926;2022-11-20T04:22:57;0.20;99.90
16814;DHT22;8524;57.650;11.926;2022-11-20T04:25:24;0.20;99.90
16814;DHT22;8524;57.650;11.926;2022-11-20T04:27:51;0.10;99.90
16814;DHT22;8524;57.650;11.926;2022-11-20T04:30:18;0.10;99.90
16814;DHT22;8524;57.650;11.926;2022-11-20T04:32:45;0.20;99.90
16814;DHT22;8524;57.650;11.926;2022-11-20T04:35:12;0.20;99.90
16814;DHT22;8524;57.650;11.926;2022-11-20T04:37:40;0.20;99.90
16814;DHT22;8524;57.650;11.926;2022-11-20T04:40:07;0.20;99.90
16814;DHT22;8524;57.650;11.926;2022-11-20T04:42:34;0.10;99.90
16814;DHT22;8524;57.650;11.926;2022-11-20T04:45:01;0.10;99.90
16814;DHT22;8524;57.650;11.926;2022-11-20T04:47:28;0.10;99.90
16814;DHT22;8524;57.650;11.926;2022-11-20T04:49:55;0.10;99.90
16814;DHT22;8524;57.650;11.926;2022-11-20T04:52:22;0.20;99.90
16814;DHT22;8524;57.650;11.926;2022-11-20T04:54:50;0.20;99.90
16814;DHT22;8524;57.650;11.926;2022-11-20T04:57:18;0.20;99.90
16814;DHT22;8524;57.650;11.926;2022-11-20T04:59:45;0.20;99.90
16814;DHT22;8524;57.650;11.926;2022-11-20T05:02:12;0.30;99.90
16814;DHT22;8524;57.650;11.926;2022-11-20T05:04:39;0.20;99.90
16814;DHT22;8524;57.650;11.926;2022-11-20T05:07:06;0.20;99.90
16814;DHT22;8524;57.650;11.926;2022-11-20T05:09:33;0.20;99.90
16814;DHT22;8524;57.650;11.926;2022-11-20T05:12:01;0.20;99.90
16814;DHT22;8524;57.650;11.926;2022-11-20T05:14:28;0.20;99.90
16814;DHT22;8524;57.650;11.926;2022-11-20T05:16:55;0.10;99.90
16814;DHT22;8524;57.650;11.926;2022-11-20T05:19:22;0.20;99.90
16814;DHT22;8524;57.650;11.926;2022-11-20T05:21:49;0.10;99.90
16814;DHT22;8524;57.650;11.926;2022-11-20T05:24:15;0.20;99.90
16814;DHT22;8524;57.650;11.926;2022-11-20T05:26:42;0.10;99.90
16814;DHT22;8524;57.650;11.926;2022-11-20T05:29:11;0.10;99.90
16814;DHT22;8524;57.650;11.926;2022-11-20T05:31:39;0.10;99.90
16814;DHT22;8524;57.650;11.926;2022-11-20T05:34:06;0.10;99.90
16814;DHT22;8524;57.650;11.926;2022-11-20T05:36:33;0.10;99.90
16814;DHT22;8524;57.650;11.926;2022-11-20T05:39:00;0.00;99.90
16814;DHT22;8524;57.650;11.926;2022-11-20T05:41:27;0.10;99.90
16814;DHT22;8524;57.650;11.926;2022-11-20T05:43:56;0.00;99.90
16814;DHT22;8524;57.650;11.926;2022-11-20T05:46:25;0.00;99.90
16814;DHT22;8524;57.650;11.926;2022-11-20T05:48:52;0.00;99.90
16814;DHT22;8524;57.650;11.926;2022-11-20T05:51:19;0.00;99.90
16814;DHT22;8524;57.650;11.926;2022-11-20T05:53:46;0.10;99.90
16814;DHT22;8524;57.650;11.926;2022-11-20T05:56:15;0.10;99.90
16814;DHT22;8524;57.650;11.926;2022-11-20T05:58:43;0.20;99.90
16814;DHT22;8524;57.650;11.926;2022-11-20T06:01:11;0.10;99.90
16814;DHT22;8524;57.650;11.926;2022-11-20T06:03:40;0.20;99.90
16814;DHT22;8524;57.650;11.926;2022-11-20T06:06:08;0.20;99.90
16814;DHT22;8524;57.650;11.926;2022-11-20T06:08:35;0.20;99.90
16814;DHT22;8524;57.650;11.926;2022-11-20T06:11:06;0.20;99.90
16814;DHT22;8524;57.650;11.926;2022-11-20T06:13:33;0.20;99.90
16814;DHT22;8524;57.650;11.926;2022-11-20T06:16:00;0.30;99.90
16814;DHT22;8524;57.650;11.926;2022-11-20T06:18:28;0.30;99.90
16814;DHT22;8524;57.650;11.926;2022-11-20T06:21:04;0.20;99.90
16814;DHT22;8524;57.650;11.926;2022-11-20T06:23:33;0.30;99.90
16814;DHT22;8524;57.650;11.926;2022-11-20T06:26:02;0.40;99.90
16814;DHT22;8524;57.650;11.926;2022-11-20T06:28:29;0.40;99.90
16814;DHT22;8524;57.650;11.926;2022-11-20T06:30:56;0.40;99.90
16814;DHT22;8524;57.650;11.926;2022-11-20T06:33:23;0.50;99.90
16814;DHT22;8524;57.650;11.926;2022-11-20T06:35:50;0.50;99.90
16814;DHT22;8524;57.650;11.926;2022-11-20T06:38:18;0.40;99.90
16814;DHT22;8524;57.650;11.926;2022-11-20T06:40:45;0.50;99.90
16814;DHT22;8524;57.650;11.926;2022-11-20T06:43:12;0.60;99.90
16814;DHT22;8524;57.650;11.926;2022-11-20T06:45:40;0.60;99.90
16814;DHT22;8524;57.650;11.926;2022-11-20T06:48:07;0.60;99.90
16814;DHT22;8524;57.650;11.926;2022-11-20T06:50:36;0.60;99.90
16814;DHT22;8524;57.650;11.926;2022-11-20T06:53:04;0.60;99.90
16814;DHT22;8524;57.650;11.926;2022-11-20T06:55:32;0.60;99.90
16814;DHT22;8524;57.650;11.926;2022-11-20T06:57:59;0.60;99.90
16814;DHT22;8524;57.650;11.926;2022-11-20T07:00:26;0.70;99.90
16814;DHT22;8524;57.650;11.926;2022-11-20T07:02:52;0.60;99.90
16814;DHT22;8524;57.650;11.926;2022-11-20T07:05:19;0.70;99.90
16814;DHT22;8524;57.650;11.926;2022-11-20T07:07:46;0.70;99.90
16814;DHT22;8524;57.650;11.926;2022-11-20T07:10:13;0.70;99.90
16814;DHT22;8524;57.650;11.926;2022-11-20T07:12:41;0.70;99.90
16814;DHT22;8524;57.650;11.926;2022-11-20T07:15:08;0.70;99.90
16814;DHT22;8524;57.650;11.926;2022-11-20T07:17:35;0.70;99.90
16814;DHT22;8524;57.650;11.926;2022-11-20T07:20:03;0.80;99.90
16814;DHT22;8524;57.650;11.926;2022-11-20T07:22:29;0.80;99.90
16814;DHT22;8524;57.650;11.926;2022-11-20T07:24:56;0.80;99.90
16814;DHT22;8524;57.650;11.926;2022-11-20T07:27:23;0.70;99.90
16814;DHT22;8524;57.650;11.926;2022-11-20T07:29:51;0.80;99.90
16814;DHT22;8524;57.650;11.926;2022-11-20T07:32:18;0.80;99.90
16814;DHT22;8524;57.650;11.926;2022-11-20T07:34:45;0.90;99.90
16814;DHT22;8524;57.650;11.926;2022-11-20T07:37:12;0.80;99.90
16814;DHT22;8524;57.650;11.926;2022-11-20T07:39:39;0.90;99.90
16814;DHT22;8524;57.650;11.926;2022-11-20T07:42:07;0.90;99.90
16814;DHT22;8524;57.650;11.926;2022-11-20T07:44:34;0.90;99.90
16814;DHT22;8524;57.650;11.926;2022-11-20T07:47:02;0.90;99.90
16814;DHT22;8524;57.650;11.926;2022-11-20T07:49:29;1.00;99.90
16814;DHT22;8524;57.650;11.926;2022-11-20T07:51:56;1.00;99.90
16814;DHT22;8524;57.650;11.926;2022-11-20T07:54:23;1.00;99.90
16814;DHT22;8524;57.650;11.926;2022-11-20T07:56:50;1.00;99.90
16814;DHT22;8524;57.650;11.926;2022-11-20T07:59:17;1.10;99.90
16814;DHT22;8524;57.650;11.926;2022-11-20T08:01:43;1.10;99.90
16814;DHT22;8524;57.650;11.926;2022-11-20T08:04:12;1.10;99.90
16814;DHT22;8524;57.650;11.926;2022-11-20T08:06:40;1.10;99.90
16814;DHT22;8524;57.650;11.926;2022-11-20T08:09:07;1.10;99.90
16814;DHT22;8524;57.650;11.926;2022-11-20T08:11:35;1.10;99.90
16814;DHT22;8524;57.650;11.926;2022-11-20T08:14:19;1.30;99.90
16814;DHT22;8524;57.650;11.926;2022-11-20T08:16:48;1.30;99.90
16814;DHT22;8524;57.650;11.926;2022-11-20T08:19:17;1.30;99.90
16814;DHT22;8524;57.650;11.926;2022-11-20T08:21:44;1.30;99.90
16814;DHT22;8524;57.650;11.926;2022-11-20T08:24:12;1.30;99.90
16814;DHT22;8524;57.650;11.926;2022-11-20T08:26:39;1.30;99.90
16814;DHT22;8524;57.650;11.926;2022-11-20T08:29:06;1.40;99.90
16814;DHT22;8524;57.650;11.926;2022-11-20T08:31:34;1.30;99.90
16814;DHT22;8524;57.650;11.926;2022-11-20T08:34:01;1.30;99.90
16814;DHT22;8524;57.650;11.926;2022-11-20T08:36:32;1.30;99.90
16814;DHT22;8524;57.650;11.926;2022-11-20T08:38:59;1.20;99.90
16814;DHT22;8524;57.650;11.926;2022-11-20T08:41:26;1.30;99.90
16814;DHT22;8524;57.650;11.926;2022-11-20T08:43:55;1.40;99.90
16814;DHT22;8524;57.650;11.926;2022-11-20T08:46:23;1.40;99.90
16814;DHT22;8524;57.650;11.926;2022-11-20T08:48:50;1.40;99.90
16814;DHT22;8524;57.650;11.926;2022-11-20T08:51:17;1.50;99.90
16814;DHT22;8524;57.650;11.926;2022-11-20T08:53:46;1.50;99.90
16814;DHT22;8524;57.650;11.926;2022-11-20T08:56:14;1.50;99.90
16814;DHT22;8524;57.650;11.926;2022-11-20T08:58:41;1.50;99.90
16814;DHT22;8524;57.650;11.926;2022-11-20T09:01:07;1.50;99.90
16814;DHT22;8524;57.650;11.926;2022-11-20T09:03:34;1.60;99.90
16814;DHT22;8524;57.650;11.926;2022-11-20T09:06:03;1.60;99.90
16814;DHT22;8524;57.650;11.926;2022-11-20T09:08:31;1.60;99.90
16814;DHT22;8524;57.650;11.926;2022-11-20T09:11:00;1.60;99.90
16814;DHT22;8524;57.650;11.926;2022-11-20T09:13:28;1.60;99.90
16814;DHT22;8524;57.650;11.926;2022-11-20T09:15:55;1.60;99.90
16814;DHT22;8524;57.650;11.926;2022-11-20T09:18:22;1.60;99.90
16814;DHT22;8524;57.650;11.926;2022-11-20T09:20:49;1.60;99.90
16814;DHT22;8524;57.650;11.926;2022-11-20T09:23:16;1.60;99.90
16814;DHT22;8524;57.650;11.926;2022-11-20T09:25:43;1.60;99.90
16814;DHT22;8524;57.650;11.926;2022-11-20T09:28:11;1.70;99.90
16814;DHT22;8524;57.650;11.926;2022-11-20T09:30:38;1.70;99.90
16814;DHT22;8524;57.650;11.926;2022-11-20T09:33:05;1.70;99.90
16814;DHT22;8524;57.650;11.926;2022-11-20T09:35:32;1.70;99.90
16814;DHT22;8524;57.650;11.926;2022-11-20T09:38:05;1.70;99.90
16814;DHT22;8524;57.650;11.926;2022-11-20T09:40:32;1.70;99.90
16814;DHT22;8524;57.650;11.926;2022-11-20T09:43:04;1.80;99.90
16814;DHT22;8524;57.650;11.926;2022-11-20T09:45:39;1.80;99.90
16814;DHT22;8524;57.650;11.926;2022-11-20T09:48:43;1.80;99.90
16814;DHT22;8524;57.650;11.926;2022-11-20T09:51:21;1.90;99.90
16814;DHT22;8524;57.650;11.926;2022-11-20T09:54:03;1.90;99.90
16814;DHT22;8524;57.650;11.926;2022-11-20T09:56:33;1.80;99.90
16814;DHT22;8524;57.650;11.926;2022-11-20T09:59:04;1.70;99.90
16814;DHT22;8524;57.650;11.926;2022-11-20T10:01:35;1.70;99.90
16814;DHT22;8524;57.650;11.926;2022-11-20T10:04:10;1.80;99.90
16814;DHT22;8524;57.650;11.926;2022-11-20T10:06:44;1.90;99.90
16814;DHT22;8524;57.650;11.926;2022-11-20T10:09:21;1.90;99.90
16814;DHT22;8524;57.650;11.926;2022-11-20T10:11:56;2.00;99.90
16814;DHT22;8524;57.650;11.926;2022-11-20T10:14:34;2.00;99.90
16814;DHT22;8524;57.650;11.926;2022-11-20T10:17:13;2.00;99.90
16814;DHT22;8524;57.650;11.926;2022-11-20T10:19:52;2.10;99.90
16814;DHT22;8524;57.650;11.926;2022-11-20T10:22:34;2.10;99.90
16814;DHT22;8524;57.650;11.926;2022-11-20T10:25:06;2.30;99.90
16814;DHT22;8524;57.650;11.926;2022-11-20T10:30:34;2.20;99.90
16814;DHT22;8524;57.650;11.926;2022-11-20T10:33:12;2.20;99.90
16814;DHT22;8524;57.650;11.926;2022-11-20T10:35:42;2.30;99.90
16814;DHT22;8524;57.650;11.926;2022-11-20T10:38:16;2.30;99.90
16814;DHT22;8524;57.650;11.926;2022-11-20T10:40:46;2.30;99.90
16814;DHT22;8524;57.650;11.926;2022-11-20T10:43:18;2.40;99.90
16814;DHT22;8524;57.650;11.926;2022-11-20T10:45:52;2.40;99.90
16814;DHT22;8524;57.650;11.926;2022-11-20T10:48:23;2.30;99.90
16814;DHT22;8524;57.650;11.926;2022-11-20T10:51:03;2.30;99.90
16814;DHT22;8524;57.650;11.926;2022-11-20T10:53:44;2.40;99.90
16814;DHT22;8524;57.650;11.926;2022-11-20T10:56:18;2.40;99.90
16814;DHT22;8524;57.650;11.926;2022-11-20T10:58:56;2.40;99.90
16814;DHT22;8524;57.650;11.926;2022-11-20T11:01:27;2.40;99.90
16814;DHT22;8524;57.650;11.926;2022-11-20T11:03:55;2.30;99.90
16814;DHT22;8524;57.650;11.926;2022-11-20T11:06:29;2.20;99.90
16814;DHT22;8524;57.650;11.926;2022-11-20T11:08:59;2.20;99.90
16814;DHT22;8524;57.650;11.926;2022-11-20T11:11:30;2.20;99.90
16814;DHT22;8524;57.650;11.926;2022-11-20T11:14:04;2.40;99.90
16814;DHT22;8524;57.650;11.926;2022-11-20T11:16:31;2.30;99.90
16814;DHT22;8524;57.650;11.926;2022-11-20T11:19:12;2.40;99.90
16814;DHT22;8524;57.650;11.926;2022-11-20T11:21:46;2.40;99.90
16814;DHT22;8524;57.650;11.926;2022-11-20T11:24:20;2.50;99.90
16814;DHT22;8524;57.650;11.926;2022-11-20T11:27:00;2.40;99.90
16814;DHT22;8524;57.650;11.926;2022-11-20T11:29:30;2.20;99.90
16814;DHT22;8524;57.650;11.926;2022-11-20T11:32:04;2.20;99.90
16814;DHT22;8524;57.650;11.926;2022-11-20T11:34:33;2.20;99.90
16814;DHT22;8524;57.650;11.926;2022-11-20T11:37:01;2.20;99.90
16814;DHT22;8524;57.650;11.926;2022-11-20T11:39:31;2.30;99.90
16814;DHT22;8524;57.650;11.926;2022-11-20T11:42:00;2.30;99.90
16814;DHT22;8524;57.650;11.926;2022-11-20T11:44:29;2.40;99.90
16814;DHT22;8524;57.650;11.926;2022-11-20T11:47:21;2.40;99.90
16814;DHT22;8524;57.650;11.926;2022-11-20T11:50:01;2.30;99.90
16814;DHT22;8524;57.650;11.926;2022-11-20T11:52:28;2.20;99.90
16814;DHT22;8524;57.650;11.926;2022-11-20T11:54:59;2.10;99.90
16814;DHT22;8524;57.650;11.926;2022-11-20T11:57:37;2.20;99.90
16814;DHT22;8524;57.650;11.926;2022-11-20T12:00:10;2.30;99.90
16814;DHT22;8524;57.650;11.926;2022-11-20T12:02:44;2.20;99.90
16814;DHT22;8524;57.650;11.926;2022-11-20T12:05:20;2.30;99.90
16814;DHT22;8524;57.650;11.926;2022-11-20T12:07:51;2.20;99.90
16814;DHT22;8524;57.650;11.926;2022-11-20T12:10:21;2.20;99.90
16814;DHT22;8524;57.650;11.926;2022-11-20T12:12:53;2.30;99.90
16814;DHT22;8524;57.650;11.926;2022-11-20T12:15:30;2.30;99.90
16814;DHT22;8524;57.650;11.926;2022-11-20T12:17:57;2.30;99.90
16814;DHT22;8524;57.650;11.926;2022-11-20T12:20:29;2.30;99.90
16814;DHT22;8524;57.650;11.926;2022-11-20T12:23:03;2.20;99.90
16814;DHT22;8524;57.650;11.926;2022-11-20T12:25:36;2.40;99.90
16814;DHT22;8524;57.650;11.926;2022-11-20T12:28:33;2.20;99.90
16814;DHT22;8524;57.650;11.926;2022-11-20T12:31:19;2.20;99.90
16814;DHT22;8524;57.650;11.926;2022-11-20T12:34:01;2.20;99.90
16814;DHT22;8524;57.650;11.926;2022-11-20T12:36:40;2.20;99.90
16814;DHT22;8524;57.650;11.926;2022-11-20T12:39:13;2.40;99.90
16814;DHT22;8524;57.650;11.926;2022-11-20T12:42:06;2.30;99.90
16814;DHT22;8524;57.650;11.926;2022-11-20T12:45:22;2.30;99.90
16814;DHT22;8524;57.650;11.926;2022-11-20T12:48:08;2.30;99.90
16814;DHT22;8524;57.650;11.926;2022-11-20T12:50:49;2.40;99.90
16814;DHT22;8524;57.650;11.926;2022-11-20T12:53:26;2.40;99.90
16814;DHT22;8524;57.650;11.926;2022-11-20T12:55:59;2.20;99.90
16814;DHT22;8524;57.650;11.926;2022-11-20T12:58:34;2.20;99.90
16814;DHT22;8524;57.650;11.926;2022-11-20T13:01:19;2.20;99.90
16814;DHT22;8524;57.650;11.926;2022-11-20T13:04:07;2.20;99.90
16814;DHT22;8524;57.650;11.926;2022-11-20T13:06:36;2.20;99.90
16814;DHT22;8524;57.650;11.926;2022-11-20T13:09:09;2.30;99.90
16814;DHT22;8524;57.650;11.926;2022-11-20T13:11:43;2.30;99.90
16814;DHT22;8524;57.650;11.926;2022-11-20T13:14:24;2.20;99.90
16814;DHT22;8524;57.650;11.926;2022-11-20T13:17:00;2.20;99.90
16814;DHT22;8524;57.650;11.926;2022-11-20T13:19:28;2.40;99.90
16814;DHT22;8524;57.650;11.926;2022-11-20T13:21:55;2.30;99.90
16814;DHT22;8524;57.650;11.926;2022-11-20T13:24:26;2.40;99.90
16814;DHT22;8524;57.650;11.926;2022-11-20T13:27:17;2.30;99.90
16814;DHT22;8524;57.650;11.926;2022-11-20T13:29:47;2.30;99.90
16814;DHT22;8524;57.650;11.926;2022-11-20T13:32:25;2.20;99.90
16814;DHT22;8524;57.650;11.926;2022-11-20T13:34:54;2.20;99.90
16814;DHT22;8524;57.650;11.926;2022-11-20T13:37:28;2.30;99.90
16814;DHT22;8524;57.650;11.926;2022-11-20T13:40:22;2.30;99.90
16814;DHT22;8524;57.650;11.926;2022-11-20T13:42:56;2.20;99.90
16814;DHT22;8524;57.650;11.926;2022-11-20T13:45:29;2.20;99.90
16814;DHT22;8524;57.650;11.926;2022-11-20T13:47:57;2.40;99.90
16814;DHT22;8524;57.650;11.926;2022-11-20T13:50:39;2.50;99.90
16814;DHT22;8524;57.650;11.926;2022-11-20T13:53:17;2.30;99.90
16814;DHT22;8524;57.650;11.926;2022-11-20T13:55:54;2.30;99.90
16814;DHT22;8524;57.650;11.926;2022-11-20T13:58:34;2.10;99.90
16814;DHT22;8524;57.650;11.926;2022-11-20T14:01:10;2.20;99.90
16814;DHT22;8524;57.650;11.926;2022-11-20T14:03:38;2.30;99.90
16814;DHT22;8524;57.650;11.926;2022-11-20T14:06:10;2.20;99.90
16814;DHT22;8524;57.650;11.926;2022-11-20T14:08:41;2.10;99.90
16814;DHT22;8524;57.650;11.926;2022-11-20T14:11:16;2.20;99.90
16814;DHT22;8524;57.650;11.926;2022-11-20T14:14:02;2.10;99.90
16814;DHT22;8524;57.650;11.926;2022-11-20T14:16:32;2.10;99.90
16814;DHT22;8524;57.650;11.926;2022-11-20T14:19:25;2.20;99.90
16814;DHT22;8524;57.650;11.926;2022-11-20T14:21:55;2.20;99.90
16814;DHT22;8524;57.650;11.926;2022-11-20T14:24:32;2.30;99.90
16814;DHT22;8524;57.650;11.926;2022-11-20T14:27:00;2.10;99.90
16814;DHT22;8524;57.650;11.926;2022-11-20T14:29:33;2.10;99.90
16814;DHT22;8524;57.650;11.926;2022-11-20T14:32:01;2.10;99.90
16814;DHT22;8524;57.650;11.926;2022-11-20T14:34:32;2.10;99.90
16814;DHT22;8524;57.650;11.926;2022-11-20T14:37:01;2.00;99.90
16814;DHT22;8524;57.650;11.926;2022-11-20T14:39:31;2.00;99.90
16814;DHT22;8524;57.650;11.926;2022-11-20T14:42:00;1.90;99.90
16814;DHT22;8524;57.650;11.926;2022-11-20T14:44:29;1.90;99.90
16814;DHT22;8524;57.650;11.926;2022-11-20T14:46:59;2.10;99.90
16814;DHT22;8524;57.650;11.926;2022-11-20T14:49:26;1.90;99.90
16814;DHT22;8524;57.650;11.926;2022-11-20T14:51:59;1.80;99.90
16814;DHT22;8524;57.650;11.926;2022-11-20T14:54:26;1.70;99.90
16814;DHT22;8524;57.650;11.926;2022-11-20T14:56:54;1.70;99.90
16814;DHT22;8524;57.650;11.926;2022-11-20T14:59:24;1.70;99.90
16814;DHT22;8524;57.650;11.926;2022-11-20T15:01:56;1.70;99.90
16814;DHT22;8524;57.650;11.926;2022-11-20T15:04:23;1.80;99.90
16814;DHT22;8524;57.650;11.926;2022-11-20T15:06:52;1.80;99.90
16814;DHT22;8524;57.650;11.926;2022-11-20T15:09:19;1.80;99.90
16814;DHT22;8524;57.650;11.926;2022-11-20T15:11:53;1.70;99.90
16814;DHT22;8524;57.650;11.926;2022-11-20T15:14:23;1.60;99.90
16814;DHT22;8524;57.650;11.926;2022-11-20T15:16:52;1.60;99.90
16814;DHT22;8524;57.650;11.926;2022-11-20T15:19:21;1.60;99.90
16814;DHT22;8524;57.650;11.926;2022-11-20T15:21:48;1.60;99.90
16814;DHT22;8524;57.650;11.926;2022-11-20T15:24:16;1.60;99.90
16814;DHT22;8524;57.650;11.926;2022-11-20T15:26:43;1.60;99.90
16814;DHT22;8524;57.650;11.926;2022-11-20T15:29:11;1.60;99.90
16814;DHT22;8524;57.650;11.926;2022-11-20T15:31:40;1.50;99.90
16814;DHT22;8524;57.650;11.926;2022-11-20T15:34:10;1.50;99.90
16814;DHT22;8524;57.650;11.926;2022-11-20T15:36:38;1.50;99.90
16814;DHT22;8524;57.650;11.926;2022-11-20T15:39:06;1.50;99.90
16814;DHT22;8524;57.650;11.926;2022-11-20T15:41:33;1.40;99.90
16814;DHT22;8524;57.650;11.926;2022-11-20T15:44:00;1.50;99.90
16814;DHT22;8524;57.650;11.926;2022-11-20T15:46:29;1.40;99.90
16814;DHT22;8524;57.650;11.926;2022-11-20T15:49:00;1.40;99.90
16814;DHT22;8524;57.650;11.926;2022-11-20T15:51:27;1.40;99.90
16814;DHT22;8524;57.650;11.926;2022-11-20T15:53:56;1.40;99.90
16814;DHT22;8524;57.650;11.926;2022-11-20T15:56:24;1.40;99.90
16814;DHT22;8524;57.650;11.926;2022-11-20T15:58:51;1.40;99.90
16814;DHT22;8524;57.650;11.926;2022-11-20T16:01:19;1.40;99.90
16814;DHT22;8524;57.650;11.926;2022-11-20T16:03:47;1.40;99.90
16814;DHT22;8524;57.650;11.926;2022-11-20T16:06:15;1.40;99.90